Date,TemperatureHighF,TemperatureAvgF,TemperatureLowF,DewpointHighF,DewpointAvgF,DewpointLowF,HumidityHigh,HumidityAvg,HumidityLow,PressureMaxIn,PressureMinIn,WindSpeedMaxMPH,WindSpeedAvgMPH,GustSpeedMaxMPH,PrecipitationSumIn
2013-3-1,20,16,11,16,13,8,89,87,84,30.42,30.40,5,0,5,0.00
2013-3-2,27,17,5,22,13,3,92,85,63,30.41,30.18,9,2,9,0.00
2013-3-3,31,26,19,27,22,17,93,86,77,30.19,29.90,19,9,19,0.00
2013-3-4,28,26,24,28,25,22,100,94,92,30.03,29.82,20,7,20,0.00
2013-3-5,29,24,18,27,22,16,100,90,84,30.38,29.98,13,3,13,0.05
2013-3-6,26,21,19,20,18,16,99,87,78,30.49,30.37,8,2,9,0.01
2013-3-7,28,20,11,25,18,9,93,89,82,30.41,30.27,18,7,18,0.00
2013-3-8,35,27,17,32,25,15,95,91,86,30.33,30.05,19,8,20,0.20
2013-3-9,37,34,32,36,34,31,97,97,95,30.05,29.67,16,6,17,0.61
2013-3-10,32,27,23,31,26,21,97,95,91,29.96,29.76,12,4,14,0.00
2013-3-11,28,24,20,25,21,18,94,90,81,29.96,29.85,10,2,10,0.10
2013-3-12,28,25,20,25,21,16,92,85,79,30.31,29.94,10,3,12,0.02
2013-3-13,29,21,14,22,17,11,94,84,66,30.48,30.29,12,3,12,0.02
2013-3-14,28,26,25,23,22,21,86,85,82,30.29,30.17,14,10,16,0.00
2013-3-15,33,33,32,32,32,31,96,95,95,29.89,29.84,5,0,5,0.00
2013-3-16,32,24,16,31,22,12,96,90,82,30.29,29.88,7,2,8,0.00
2013-3-17,31,22,11,28,17,7,90,83,74,30.30,29.82,25,9,25,0.00
2013-3-18,32,21,12,31,16,6,96,82,71,30.02,29.68,22,7,22,0.00
2013-3-19,28,17,8,21,10,4,85,75,58,30.37,30.01,8,2,9,0.00
2013-3-20,23,15,8,14,8,3,89,73,60,30.40,30.23,11,2,12,0.00
2013-3-21,26,17,6,19,10,3,92,76,60,30.23,30.08,11,2,11,0.00
2013-3-22,31,23,14,22,18,11,91,79,64,30.16,30.09,9,2,10,0.00
2013-3-23,31,26,23,23,21,18,92,80,64,30.22,30.11,9,1,9,0.00
2013-3-24,30,26,21,27,23,18,93,88,79,30.17,30.03,9,3,9,0.01
2013-3-25,34,27,22,27,22,18,92,83,68,30.34,30.09,10,3,11,0.02
2013-3-26,38,27,17,25,20,14,92,76,51,30.38,30.31,8,1,10,0.00
2013-3-27,40,32,23,32,27,21,92,81,64,30.36,30.30,12,4,13,0.00
2013-3-28,48,37,28,40,32,25,93,83,65,30.34,30.25,12,5,14,0.00
2013-3-29,55,43,32,45,38,30,93,81,62,30.27,30.04,19,8,19,0.00
2013-3-30,58,48,35,48,42,33,94,80,60,30.04,29.87,13,4,14,0.00
2013-3-31,40,35,32,34,30,21,99,83,56,30.05,29.88,12,2,13,0.00